createdAt,value
2019-03-28T00:04:19.153Z,48.80
2019-03-28T00:09:24.662Z,48.80
2019-03-28T00:14:30.422Z,48.80
2019-03-28T00:19:35.681Z,48.90
2019-03-28T00:24:47.959Z,49.10
2019-03-28T00:29:55.966Z,49.00
2019-03-28T00:35:01.493Z,49.70
2019-03-28T00:40:07.058Z,49.10
2019-03-28T00:45:12.737Z,49.20
2019-03-28T00:50:18.336Z,49.20
2019-03-28T00:55:28.637Z,49.20
2019-03-28T01:00:30.577Z,49.20
2019-03-28T01:05:36.285Z,49.40
2019-03-28T01:10:41.783Z,49.40
2019-03-28T01:15:47.281Z,49.30
2019-03-28T01:20:52.559Z,49.30
2019-03-28T01:25:59.401Z,49.30
2019-03-28T01:31:06.396Z,49.30
2019-03-28T01:36:13.324Z,49.20
2019-03-28T01:41:18.829Z,49.30
2019-03-28T01:46:24.063Z,49.40
2019-03-28T01:51:29.908Z,49.40
2019-03-28T01:56:37.027Z,49.40
2019-03-28T02:01:42.952Z,49.40
2019-03-28T02:06:48.504Z,49.40
2019-03-28T02:11:53.781Z,49.50
2019-03-28T02:17:00.993Z,49.60
2019-03-28T02:22:06.116Z,49.60
2019-03-28T02:27:23.365Z,49.50
2019-03-28T02:32:20.575Z,49.90
2019-03-28T02:37:26.083Z,49.60
2019-03-28T02:42:31.329Z,49.50
2019-03-28T02:47:36.607Z,49.50
2019-03-28T02:52:41.865Z,49.50
2019-03-28T02:57:47.388Z,49.70
2019-03-28T03:02:53.731Z,49.90
2019-03-28T03:08:03.243Z,49.90
2019-03-28T03:13:08.604Z,50.00
2019-03-28T03:18:13.858Z,50.00
2019-03-28T03:23:19.962Z,50.20
2019-03-28T03:28:25.451Z,50.40
2019-03-28T03:33:30.700Z,50.30
2019-03-28T03:38:36.944Z,50.40
2019-03-28T03:43:46.793Z,50.40
2019-03-28T03:48:50.600Z,51.10
2019-03-28T03:53:56.104Z,50.90
2019-03-28T03:59:03.069Z,50.40
2019-03-28T04:04:09.706Z,50.40
2019-03-28T04:09:15.279Z,50.60
2019-03-28T04:14:20.571Z,50.70
2019-03-28T04:19:25.870Z,50.80
2019-03-28T04:24:32.440Z,50.90
2019-03-28T04:29:37.694Z,50.90
2019-03-28T04:34:42.936Z,50.90
2019-03-28T04:39:49.428Z,50.90
2019-03-28T04:44:57.738Z,51.00
2019-03-28T04:50:04.988Z,50.90
2019-03-28T04:55:10.742Z,50.90
2019-03-28T05:00:16.617Z,50.70
2019-03-28T05:05:22.169Z,50.90
2019-03-28T05:10:27.593Z,51.10
2019-03-28T05:15:32.878Z,51.30
2019-03-28T05:20:38.445Z,51.30
2019-03-28T05:25:43.715Z,51.40
2019-03-28T05:30:49.243Z,51.40
2019-03-28T05:35:54.998Z,51.60
2019-03-28T05:41:00.338Z,51.60
2019-03-28T05:46:05.691Z,51.60
2019-03-28T05:51:11.929Z,51.60
2019-03-28T05:56:20.010Z,51.60
2019-03-28T06:01:26.618Z,51.70
2019-03-28T06:06:33.221Z,51.70
2019-03-28T06:11:38.453Z,51.80
2019-03-28T06:16:43.906Z,52.00
2019-03-28T06:21:49.382Z,52.70
2019-03-28T06:26:54.603Z,52.00
2019-03-28T06:32:00.169Z,52.30
2019-03-28T06:37:06.456Z,52.20
2019-03-28T06:42:14.351Z,52.20
2019-03-28T06:47:21.101Z,52.30
2019-03-28T06:52:26.573Z,52.40
2019-03-28T06:57:32.047Z,52.40
2019-03-28T07:02:37.332Z,52.60
2019-03-28T07:07:44.402Z,52.70
2019-03-28T07:12:50.882Z,52.80
2019-03-28T07:17:58.517Z,52.90
2019-03-28T07:23:04.329Z,53.20
2019-03-28T07:28:10.569Z,53.40
2019-03-28T07:33:15.777Z,53.40
2019-03-28T07:38:21.257Z,53.60
2019-03-28T07:43:30.351Z,53.60
2019-03-28T07:48:35.596Z,53.60
2019-03-28T07:53:40.817Z,53.80
2019-03-28T07:58:49.558Z,54.00
2019-03-28T08:03:55.328Z,54.20
2019-03-28T08:09:02.854Z,54.50
2019-03-28T08:14:10.118Z,54.30
2019-03-28T08:19:15.522Z,54.30
2019-03-28T08:24:22.368Z,54.10
2019-03-28T08:29:27.760Z,54.20
2019-03-28T08:34:33.151Z,54.20
2019-03-28T08:39:38.705Z,54.20
2019-03-28T08:44:44.013Z,54.10
2019-03-28T08:49:49.320Z,53.90
2019-03-28T08:54:56.095Z,54.00
2019-03-28T09:00:01.594Z,54.00
2019-03-28T09:05:09.337Z,54.00
2019-03-28T09:10:14.892Z,53.90
2019-03-28T09:15:21.503Z,53.90
2019-03-28T09:20:27.153Z,53.90
2019-03-28T09:25:33.900Z,53.90
2019-03-28T09:30:48.634Z,53.90
2019-03-28T09:35:53.309Z,53.90
2019-03-28T09:40:58.635Z,54.00
2019-03-28T09:46:05.144Z,54.10
2019-03-28T09:51:12.336Z,54.10
2019-03-28T09:56:18.848Z,53.80
2019-03-28T10:01:24.101Z,53.80
2019-03-28T10:06:29.760Z,53.80
2019-03-28T10:11:35.248Z,53.60
2019-03-28T10:16:40.584Z,54.30
2019-03-28T10:21:46.573Z,53.30
2019-03-28T10:26:53.293Z,53.50
2019-03-28T10:31:58.805Z,53.30
2019-03-28T10:37:04.247Z,53.30
2019-03-28T10:42:11.308Z,53.10
2019-03-28T10:47:16.805Z,52.60
2019-03-28T10:52:22.106Z,52.60
2019-03-28T10:57:31.970Z,51.70
2019-03-28T11:02:34.657Z,51.50
2019-03-28T11:07:39.897Z,51.80
2019-03-28T11:12:45.888Z,51.50
2019-03-28T11:17:52.396Z,51.00
2019-03-28T11:22:57.669Z,51.00
2019-03-28T11:28:02.975Z,51.40
2019-03-28T11:33:09.193Z,51.10
2019-03-28T11:38:15.044Z,51.00
2019-03-28T11:43:20.568Z,50.80
2019-03-28T11:48:27.753Z,51.00
2019-03-28T11:53:33.269Z,49.50
2019-03-28T11:58:38.790Z,49.60
2019-03-28T12:03:44.278Z,49.90
2019-03-28T12:08:50.466Z,50.10
2019-03-28T12:13:55.745Z,50.00
2019-03-28T12:19:01.597Z,50.00
2019-03-28T12:24:07.234Z,50.00
2019-03-28T12:29:12.495Z,49.90
2019-03-28T12:34:17.766Z,49.50
2019-03-28T12:39:23.586Z,49.50
2019-03-28T12:44:28.817Z,49.50
2019-03-28T12:49:34.059Z,49.30
2019-03-28T12:54:39.621Z,49.20
2019-03-28T12:59:44.859Z,49.10
2019-03-28T13:04:50.151Z,49.10
2019-03-28T13:09:56.575Z,49.60
2019-03-28T13:15:01.880Z,48.90
2019-03-28T13:20:08.030Z,48.60
2019-03-28T13:25:13.372Z,48.60
2019-03-28T13:30:19.990Z,48.60
2019-03-28T13:35:28.048Z,48.30
2019-03-28T13:40:33.596Z,48.50
2019-03-28T13:45:38.961Z,48.50
2019-03-28T13:50:45.673Z,48.50
2019-03-28T13:55:52.266Z,48.50
2019-03-28T14:01:00.796Z,48.40
2019-03-28T14:06:06.038Z,48.40
2019-03-28T14:11:13.337Z,48.80
2019-03-28T14:16:18.889Z,47.90
2019-03-28T14:21:24.465Z,47.80
2019-03-28T14:26:29.957Z,47.40
2019-03-28T14:31:36.665Z,47.60
2019-03-28T14:36:41.957Z,47.40
2019-03-28T14:41:47.568Z,47.60
2019-03-28T14:46:52.926Z,47.60
2019-03-28T14:51:58.597Z,47.40
2019-03-28T14:57:06.837Z,47.50
2019-03-28T15:02:13.761Z,47.40
2019-03-28T15:07:20.273Z,47.20
2019-03-28T15:12:25.533Z,47.30
2019-03-28T15:17:31.341Z,47.60
2019-03-28T15:22:36.632Z,47.40
2019-03-28T15:27:41.860Z,47.30
2019-03-28T15:32:47.355Z,47.40
2019-03-28T15:37:52.577Z,47.30
2019-03-28T15:42:58.873Z,47.60
2019-03-28T15:48:07.157Z,47.40
2019-03-28T15:53:13.954Z,47.50
2019-03-28T15:58:23.466Z,47.30
2019-03-28T16:03:28.586Z,47.30
2019-03-28T16:08:33.850Z,47.40
2019-03-28T16:13:41.221Z,47.40
2019-03-28T16:18:47.777Z,47.30
2019-03-28T16:23:53.546Z,47.20
2019-03-28T16:29:02.926Z,47.20
2019-03-28T16:34:08.231Z,47.30
2019-03-28T16:39:14.877Z,47.30
2019-03-28T16:44:20.664Z,47.40
2019-03-28T16:49:26.011Z,47.50
2019-03-28T16:54:32.468Z,47.60
2019-03-28T16:59:38.334Z,47.50
2019-03-28T17:04:46.542Z,47.60
2019-03-28T17:09:51.906Z,47.70
2019-03-28T17:14:57.138Z,48.40
2019-03-28T17:20:02.692Z,47.80
2019-03-28T17:25:09.107Z,47.90
2019-03-28T17:30:16.247Z,47.90
2019-03-28T17:35:23.305Z,47.80
2019-03-28T17:40:28.576Z,47.90
2019-03-28T17:45:38.352Z,48.00
2019-03-28T17:51:05.611Z,47.90
2019-03-28T17:56:11.582Z,48.20
2019-03-28T18:01:17.058Z,47.50
2019-03-28T18:06:22.900Z,47.60
2019-03-28T18:11:32.480Z,47.70
2019-03-28T18:16:38.054Z,47.80
2019-03-28T18:21:43.650Z,47.90
2019-03-28T18:26:49.067Z,48.10
2019-03-28T18:31:54.586Z,48.10
2019-03-28T18:37:00.926Z,48.10
2019-03-28T18:42:08.462Z,48.80
2019-03-28T18:47:15.606Z,48.20
2019-03-28T18:52:20.984Z,48.40
2019-03-28T19:03:15.691Z,48.60
2019-03-28T19:08:21.207Z,48.60
2019-03-28T19:13:27.189Z,48.60
2019-03-28T19:18:32.631Z,48.70
2019-03-28T19:23:40.021Z,48.70
2019-03-28T19:28:50.755Z,48.80
2019-03-28T19:33:56.752Z,48.90
2019-03-28T19:39:10.576Z,48.90
2019-03-28T19:44:16.501Z,49.00
2019-03-28T19:49:24.468Z,49.10
2019-03-28T19:54:30.323Z,49.10
2019-03-28T19:59:37.135Z,49.10
2019-03-28T20:04:43.435Z,49.40
2019-03-28T20:09:49.997Z,49.40
2019-03-28T20:14:55.421Z,49.50
2019-03-28T20:20:02.875Z,49.60
2019-03-28T20:25:14.551Z,49.70
2019-03-28T20:30:20.691Z,50.40
2019-03-28T20:35:26.379Z,49.80
